createdAt,value
2023-05-19T00:00:15.683Z,14.73
2023-05-19T00:03:24.680Z,14.48
2023-05-19T00:06:32.011Z,13.82
2023-05-19T00:09:46.690Z,14.77
2023-05-19T00:12:53.840Z,14.23
2023-05-19T00:16:00.283Z,14.65
2023-05-19T00:19:04.525Z,13.32
2023-05-19T00:22:10.267Z,14.55
2023-05-19T00:25:12.918Z,14.33
2023-05-19T00:28:21.921Z,14.33
2023-05-19T00:31:27.120Z,13.77
2023-05-19T00:34:34.093Z,13.10
2023-05-19T00:37:36.711Z,13.13
2023-05-19T00:40:41.941Z,13.00
2023-05-19T00:43:44.738Z,13.43
2023-05-19T00:46:47.465Z,13.88
2023-05-19T00:49:54.114Z,13.75
2023-05-19T00:52:57.083Z,13.10
2023-05-19T00:56:00.717Z,13.37
2023-05-19T00:59:04.697Z,14.07
2023-05-19T01:02:07.771Z,13.88
2023-05-19T01:05:10.652Z,13.23
2023-05-19T01:08:13.810Z,14.38
2023-05-19T01:11:19.166Z,14.53
2023-05-19T01:14:22.237Z,14.40
2023-05-19T01:17:45.131Z,14.48
2023-05-19T01:20:53.918Z,13.80
2023-05-19T01:24:23.356Z,14.20
2023-05-19T01:27:51.212Z,14.43
2023-05-19T01:30:55.930Z,14.03
2023-05-19T01:33:59.408Z,14.73
2023-05-19T01:37:03.737Z,15.13
2023-05-19T01:40:08.204Z,14.90
2023-05-19T01:43:14.153Z,14.90
2023-05-19T01:46:18.038Z,14.47
2023-05-19T01:49:23.972Z,13.50
2023-05-19T01:52:29.528Z,14.77
2023-05-19T01:55:32.477Z,13.68
2023-05-19T01:58:44.897Z,13.50
2023-05-19T02:01:57.489Z,13.23
2023-05-19T02:05:13.650Z,13.82
2023-05-19T02:08:40.169Z,13.57
2023-05-19T02:11:53.654Z,13.35
2023-05-19T02:15:09.996Z,14.53
2023-05-19T02:18:14.336Z,14.13
2023-05-19T02:21:17.708Z,14.25
2023-05-19T02:24:23.062Z,13.93
2023-05-19T02:27:26.465Z,12.88
2023-05-19T02:30:30.415Z,13.60
2023-05-19T02:33:36.536Z,13.67
2023-05-19T02:36:45.735Z,14.30
2023-05-19T02:39:50.183Z,13.65
2023-05-19T02:42:55.921Z,14.50
2023-05-19T02:46:04.504Z,15.50
2023-05-19T02:49:14.520Z,14.27
2023-05-19T02:52:17.340Z,13.73
2023-05-19T02:55:20.271Z,13.25
2023-05-19T02:58:28.420Z,14.65
2023-05-19T03:01:32.826Z,13.37
2023-05-19T03:04:41.875Z,16.33
2023-05-19T03:07:44.947Z,17.15
2023-05-19T03:10:47.987Z,13.07
2023-05-19T03:13:50.793Z,13.52
2023-05-19T03:16:53.902Z,13.00
2023-05-19T03:20:00.537Z,14.50
2023-05-19T03:23:03.297Z,16.05
2023-05-19T03:26:08.414Z,13.35
2023-05-19T03:29:11.585Z,13.73
2023-05-19T03:32:15.798Z,13.03
2023-05-19T03:35:18.967Z,14.97
2023-05-19T03:38:21.753Z,25.83
2023-05-19T03:41:34.505Z,38.90
2023-05-19T03:44:44.840Z,24.10
2023-05-19T03:47:51.243Z,16.37
2023-05-19T03:51:05.094Z,13.77
2023-05-19T03:54:08.429Z,13.80
2023-05-19T03:57:11.476Z,19.92
2023-05-19T04:00:20.448Z,16.02
2023-05-19T04:03:34.618Z,12.50
2023-05-19T04:06:40.456Z,12.73
2023-05-19T04:09:46.383Z,12.90
2023-05-19T04:12:49.197Z,12.38
2023-05-19T04:15:54.824Z,11.98
2023-05-19T04:18:57.601Z,11.90
2023-05-19T04:22:00.772Z,11.47
2023-05-19T04:25:08.644Z,11.50
2023-05-19T04:28:13.694Z,11.35
2023-05-19T04:31:16.680Z,12.05
2023-05-19T04:34:20.160Z,11.00
2023-05-19T04:37:24.376Z,11.60
2023-05-19T04:40:31.643Z,13.35
2023-05-19T04:43:34.764Z,11.43
2023-05-19T04:46:37.783Z,12.40
2023-05-19T04:49:41.648Z,11.40
2023-05-19T04:52:47.595Z,12.83
2023-05-19T04:55:51.134Z,11.32
2023-05-19T04:58:54.073Z,10.65
2023-05-19T05:01:57.743Z,10.98
2023-05-19T05:05:23.501Z,10.20
2023-05-19T05:08:27.327Z,11.17
2023-05-19T05:11:30.681Z,11.05
2023-05-19T05:14:34.160Z,11.05
2023-05-19T05:17:37.930Z,11.15
2023-05-19T05:20:43.135Z,10.43
2023-05-19T05:23:49.340Z,11.83
2023-05-19T05:26:56.120Z,10.75
2023-05-19T05:29:59.351Z,10.90
2023-05-19T05:33:09.979Z,12.25
2023-05-19T05:36:21.466Z,11.53
2023-05-19T05:39:32.098Z,10.07
2023-05-19T05:42:38.299Z,9.85
2023-05-19T05:45:42.012Z,9.65
2023-05-19T05:48:50.777Z,10.60
2023-05-19T05:52:05.009Z,9.30
2023-05-19T05:55:21.267Z,11.93
2023-05-19T05:58:24.873Z,9.13
2023-05-19T06:01:28.344Z,8.45
2023-05-19T06:04:31.219Z,8.77
2023-05-19T06:07:34.305Z,7.70
2023-05-19T06:10:39.180Z,7.77
2023-05-19T06:13:44.766Z,8.10
2023-05-19T06:16:55.167Z,7.85
2023-05-19T06:35:20.626Z,6.53
2023-05-19T06:38:23.800Z,5.82
2023-05-19T06:41:27.121Z,5.63
2023-05-19T06:44:30.036Z,5.63
2023-05-19T10:00:20.256Z,4.60
2023-05-19T10:03:24.173Z,4.43
2023-05-19T10:06:27.154Z,4.60
2023-05-19T10:09:30.126Z,4.85
2023-05-19T10:12:33.493Z,5.23
2023-05-19T10:15:50.080Z,4.47
2023-05-19T10:19:00.935Z,4.05
2023-05-19T10:22:06.435Z,4.78
2023-05-19T10:25:10.813Z,4.00
2023-05-19T10:28:16.421Z,4.90
2023-05-19T10:31:22.709Z,5.33
2023-05-19T10:34:40.666Z,4.55
2023-05-19T10:37:52.100Z,5.40
2023-05-19T10:40:54.778Z,4.88
2023-05-19T10:44:19.329Z,4.83
2023-05-19T10:47:31.721Z,6.07
2023-05-19T10:50:38.052Z,4.95
2023-05-19T10:53:47.520Z,4.82
2023-05-19T10:56:50.203Z,5.10
2023-05-19T10:59:52.786Z,4.90
2023-05-19T11:03:13.710Z,5.20
2023-05-19T11:06:30.948Z,4.82
2023-05-19T11:09:40.731Z,4.97
2023-05-19T11:12:46.053Z,5.25
2023-05-19T11:15:50.169Z,5.27
2023-05-19T11:18:55.052Z,5.10
2023-05-19T11:22:08.285Z,4.70
2023-05-19T11:25:10.967Z,4.40
2023-05-19T11:28:16.980Z,4.10
2023-05-19T11:31:19.677Z,4.10
2023-05-19T11:34:26.095Z,4.70
2023-05-19T11:37:32.286Z,4.53
2023-05-19T11:40:36.387Z,4.70
2023-05-19T11:43:39.107Z,3.78
2023-05-19T11:46:41.785Z,3.90
2023-05-19T11:49:47.905Z,3.80
2023-05-19T11:52:52.012Z,4.03
2023-05-19T11:56:03.044Z,3.75
2023-05-19T11:59:06.067Z,3.17
2023-05-19T12:02:20.060Z,3.80
2023-05-19T12:05:24.601Z,3.13
2023-05-19T12:08:29.346Z,3.60
2023-05-19T12:11:32.071Z,3.63
2023-05-19T12:14:36.032Z,3.72
2023-05-19T12:17:38.747Z,3.10
2023-05-19T12:20:41.514Z,3.30
2023-05-19T12:23:47.162Z,2.92
2023-05-19T12:26:50.565Z,3.65
2023-05-19T12:29:57.356Z,3.58
2023-05-19T12:33:02.945Z,3.30
2023-05-19T12:36:09.374Z,3.10
2023-05-19T12:39:14.189Z,3.22
2023-05-19T12:42:17.656Z,3.35
2023-05-19T12:45:26.009Z,3.58
2023-05-19T12:48:31.638Z,3.63
2023-05-19T12:51:42.976Z,3.40
2023-05-19T12:54:48.610Z,3.35
2023-05-19T12:57:57.188Z,3.05
2023-05-19T13:01:00.537Z,3.45
2023-05-19T13:04:06.649Z,3.23
2023-05-19T13:07:09.900Z,3.80
2023-05-19T13:10:14.847Z,3.28
2023-05-19T13:13:17.735Z,3.40
2023-05-19T13:16:20.393Z,3.50
2023-05-19T13:19:26.270Z,4.17
2023-05-19T13:22:28.970Z,4.20
2023-05-19T13:25:35.209Z,3.30
2023-05-19T13:28:37.874Z,3.28
2023-05-19T13:31:41.217Z,3.63
2023-05-19T13:34:44.090Z,3.50
2023-05-19T13:37:49.969Z,4.60
2023-05-19T13:40:52.640Z,3.90
2023-05-19T13:44:01.147Z,4.00
2023-05-19T13:47:03.813Z,3.92
2023-05-19T13:50:09.861Z,4.57
2023-05-19T13:53:12.563Z,3.00
2023-05-19T13:56:15.555Z,3.90
2023-05-19T13:59:18.207Z,3.00
2023-05-19T14:02:24.405Z,3.40
2023-05-19T14:05:29.146Z,3.60
2023-05-19T14:08:34.086Z,4.03
2023-05-19T14:11:36.737Z,3.83
2023-05-19T14:14:41.725Z,3.88
2023-05-19T14:17:44.451Z,4.30
2023-05-19T14:20:50.225Z,4.97
2023-05-19T14:23:52.927Z,4.30
2023-05-19T14:26:58.047Z,4.60
2023-05-19T14:30:00.712Z,4.25
2023-05-19T14:33:03.421Z,3.80
2023-05-19T14:36:10.476Z,3.57
2023-05-19T14:39:13.206Z,3.70
2023-05-19T14:42:15.849Z,4.05
2023-05-19T14:45:18.550Z,4.05
2023-05-19T14:48:23.414Z,4.13
2023-05-19T14:51:26.032Z,4.03
2023-05-19T14:54:28.617Z,4.60
2023-05-19T14:57:36.952Z,4.35
2023-05-19T15:00:39.780Z,4.05
2023-05-19T15:03:49.754Z,4.05
2023-05-19T15:07:05.740Z,4.70
2023-05-19T15:10:14.430Z,3.87
2023-05-19T15:13:19.169Z,4.18
2023-05-19T15:16:21.850Z,3.45
2023-05-19T15:19:24.747Z,4.97
2023-05-19T15:22:27.569Z,4.80
2023-05-19T15:25:30.862Z,4.70
2023-05-19T15:28:34.289Z,3.50
2023-05-19T15:31:39.633Z,5.15
2023-05-19T15:34:45.224Z,4.68
2023-05-19T15:37:47.805Z,4.70
2023-05-19T15:40:50.406Z,4.80
2023-05-19T15:43:56.449Z,5.38
2023-05-19T15:47:01.670Z,4.35
2023-05-19T15:50:04.506Z,5.22
2023-05-19T15:53:08.395Z,4.87
2023-05-19T15:56:11.122Z,4.70
2023-05-19T15:59:13.878Z,4.53
2023-05-19T16:02:16.666Z,4.63
2023-05-19T16:05:19.470Z,4.50
2023-05-19T16:08:22.455Z,4.00
2023-05-19T16:11:25.122Z,4.80
2023-05-19T16:14:31.150Z,4.35
2023-05-19T16:17:34.048Z,4.55
2023-05-19T16:20:36.730Z,5.50
2023-05-19T16:23:40.478Z,4.33
2023-05-19T16:26:43.081Z,4.10
2023-05-19T16:29:51.061Z,6.28
2023-05-19T16:32:56.304Z,4.40
2023-05-19T16:36:00.086Z,5.05
2023-05-19T16:39:02.766Z,5.13
2023-05-19T16:42:05.688Z,5.57
2023-05-19T16:45:08.999Z,4.13
2023-05-19T16:48:11.620Z,4.72
2023-05-19T16:51:14.222Z,4.40
2023-05-19T16:54:16.861Z,5.53
2023-05-19T16:57:22.455Z,5.80
2023-05-19T17:00:27.593Z,5.07
2023-05-19T17:03:32.992Z,4.68
2023-05-19T17:06:35.980Z,5.40
2023-05-19T17:09:38.567Z,12.37
2023-05-19T17:12:41.124Z,11.50
2023-05-19T17:15:43.725Z,10.20
2023-05-19T17:18:56.719Z,7.90
2023-05-19T17:21:59.509Z,8.07
2023-05-19T17:25:07.746Z,14.10
2023-05-19T17:28:16.485Z,9.50
2023-05-19T17:31:21.319Z,12.27
2023-05-19T17:34:24.018Z,10.25
2023-05-19T17:37:27.348Z,9.70
2023-05-19T17:40:30.137Z,8.07
2023-05-19T17:43:32.762Z,10.13
2023-05-19T17:46:39.440Z,11.13
2023-05-19T17:49:47.916Z,10.45
2023-05-19T17:52:54.614Z,9.73
2023-05-19T17:55:59.682Z,10.00
2023-05-19T17:59:03.213Z,8.07
2023-05-19T18:02:06.264Z,9.05
2023-05-19T18:05:14.854Z,9.32
2023-05-19T18:08:18.236Z,9.30
2023-05-19T18:11:21.469Z,8.57
2023-05-19T18:14:24.252Z,8.37
2023-05-19T18:17:26.896Z,7.43
2023-05-19T18:20:31.201Z,8.88
2023-05-19T18:23:34.019Z,11.07
2023-05-19T18:26:41.784Z,8.07
2023-05-19T18:29:44.516Z,8.20
2023-05-19T18:32:47.168Z,7.13
2023-05-19T18:35:50.341Z,8.10
2023-05-19T18:38:58.225Z,7.70
2023-05-19T18:42:04.770Z,11.60
2023-05-19T18:45:13.539Z,13.50
2023-05-19T18:48:18.131Z,10.45
2023-05-19T18:51:26.984Z,9.68
2023-05-19T18:54:29.759Z,9.57
2023-05-19T18:57:32.376Z,9.43
2023-05-19T19:00:37.854Z,10.40
2023-05-19T19:03:42.040Z,12.02
2023-05-19T19:06:44.768Z,14.32
2023-05-19T19:09:47.370Z,20.48
2023-05-19T19:12:50.094Z,18.37
2023-05-19T19:15:52.986Z,14.47
2023-05-19T19:18:55.798Z,17.25
2023-05-19T19:21:58.543Z,16.67
2023-05-19T19:25:03.820Z,18.75
2023-05-19T19:28:09.275Z,16.43
2023-05-19T19:31:12.080Z,18.60
2023-05-19T19:34:14.774Z,19.75
2023-05-19T19:37:19.769Z,18.35
2023-05-19T19:40:26.450Z,17.92
2023-05-19T19:43:29.134Z,19.53
2023-05-19T19:46:34.593Z,19.40
2023-05-19T19:49:37.188Z,19.98
2023-05-19T19:52:41.163Z,23.30
2023-05-19T19:55:43.966Z,23.17
2023-05-19T19:58:46.661Z,19.33
2023-05-19T20:01:52.181Z,15.77
2023-05-19T20:04:57.821Z,17.67
2023-05-19T20:08:00.829Z,18.23
2023-05-19T20:11:03.560Z,19.95
2023-05-19T20:14:06.424Z,20.67
2023-05-19T20:17:09.159Z,20.03
2023-05-19T20:20:12.373Z,20.90
2023-05-19T20:23:16.316Z,20.02
2023-05-19T20:26:19.070Z,20.55
2023-05-19T20:29:25.103Z,21.57
2023-05-19T20:32:30.579Z,17.87
2023-05-19T20:35:33.458Z,16.70
2023-05-19T20:38:36.313Z,18.33
2023-05-19T20:41:38.992Z,17.80
2023-05-19T20:44:41.713Z,18.37
2023-05-19T20:47:44.474Z,20.73
2023-05-19T20:50:47.103Z,22.70
2023-05-19T20:53:52.039Z,18.35
2023-05-19T20:56:59.426Z,18.70
2023-05-19T21:00:05.683Z,15.73
2023-05-19T21:03:11.763Z,14.87
2023-05-19T21:06:14.546Z,16.17
2023-05-19T21:09:17.239Z,16.00
2023-05-19T21:12:24.038Z,16.33
2023-05-19T21:15:27.289Z,14.60
2023-05-19T21:18:29.907Z,13.77
2023-05-19T21:21:33.599Z,13.73
2023-05-19T21:24:36.340Z,13.85
2023-05-19T21:27:42.128Z,14.52
2023-05-19T21:30:49.095Z,14.60
2023-05-19T21:33:51.874Z,14.70
2023-05-19T21:36:54.544Z,16.27
2023-05-19T21:40:00.049Z,15.07
2023-05-19T21:43:03.917Z,14.02
2023-05-19T21:46:09.650Z,14.77
2023-05-19T21:49:12.339Z,14.83
2023-05-19T21:52:15.070Z,14.57
2023-05-19T21:55:17.667Z,15.77
2023-05-19T21:58:20.520Z,14.15
2023-05-19T22:01:31.651Z,15.07
2023-05-19T22:04:34.404Z,15.30
2023-05-19T22:07:37.142Z,14.50
2023-05-19T22:10:39.880Z,13.98
2023-05-19T22:13:42.703Z,12.32
2023-05-19T22:16:47.595Z,13.17
2023-05-19T22:19:50.487Z,13.17
2023-05-19T22:22:53.118Z,13.98
2023-05-19T22:25:55.961Z,13.07
2023-05-19T22:28:58.536Z,11.43
2023-05-19T22:32:12.326Z,11.90
2023-05-19T22:35:15.162Z,12.83
2023-05-19T22:38:17.786Z,12.18
2023-05-19T22:41:20.436Z,11.93
2023-05-19T22:44:23.182Z,11.40
2023-05-19T22:47:25.957Z,12.33
2023-05-19T22:50:28.758Z,12.47
2023-05-19T22:53:31.436Z,12.32
2023-05-19T22:56:34.259Z,13.18
2023-05-19T22:59:38.382Z,14.00
2023-05-19T23:02:45.276Z,13.17
2023-05-19T23:05:47.911Z,12.23
2023-05-19T23:09:04.121Z,13.10
2023-05-19T23:12:07.140Z,11.65
2023-05-19T23:15:11.126Z,10.85
2023-05-19T23:18:16.689Z,12.00
2023-05-19T23:21:19.497Z,12.90
2023-05-19T23:24:22.171Z,12.93
2023-05-19T23:27:24.883Z,13.88
2023-05-19T23:30:31.507Z,14.00
2023-05-19T23:33:34.147Z,13.80
2023-05-19T23:36:37.071Z,12.63
2023-05-19T23:39:42.773Z,11.90
2023-05-19T23:42:47.972Z,12.05
2023-05-19T23:45:50.771Z,11.70
2023-05-19T23:48:53.416Z,11.67
2023-05-19T23:51:56.173Z,12.70
2023-05-19T23:54:58.921Z,14.02
2023-05-19T23:58:04.322Z,12.65
